Irrigon, Oregon
Current Conditions -  °F | °C
As of 2:22 AM on Thursday 29 Jan 2015 (Local Time) from KHRI Reporting Station
Haze Haze  
Wind Chill: 33°   Ceiling: 700
Heat Index: 37°   Visibility: 3mi
Dew Point: 35°   Wind: 5mph
Humidity: 93%   Direction: 20°NNE
Pressure: 30.48"   Gusts: NA
Location:  45.9°N, 119.49°W
Report Text: KHRI 291022Z AUTO 02004KT 3SM BR BKN007 OVC013 03/02 A3048 RMK AO2 CIG 006V011 T00280017
Loading
Personal Weather Stations






























Interactive Weather Map New forecast layout! Learn more

10-Day Weather Forecast

Advertisements
Track Severe Weather on mobile